Weather forecast for Kerch (Керчь)

Ukraine, 10 m
N45.193, E36.303


Sounding

Red line — air temperature ˚C.
Blue line — thermal bubble temperature ˚C.
Green line — dew point temperature ˚C.
Wind speed is in meters per second.

Table forecast

GFS 0.25˚ model

temp. wind gust humid. clouds prec. press. hpbl
Sat18 00:00 6 68.0 ene 6 10 66 41 0.0 1021 285
03:00 5 68.0 ene 5 9 76 63 0.0 1021 261
06:00 5 67.0 ene 4 7 85 98 0.0 1019 212
09:00 6 76.0 ene 4 6 85 99 0.0 1019 202
12:00 10 95.0 e 2 2 70 100 0.0 1018 247
15:00 11 89.0 e 2 2 66 100 0.0 1017 248
18:00 9 71.0 ene 2 3 78 98 0.0 1016 41
21:00 9 82.0 e 2 3 79 99 0.0 1015 35
 
Sun19 00:00 10 123.0 ese 2 3 89 89 0.0 1014 22
03:00 10 139.0 se 2 3 93 85 0.0 1013 23
06:00 11 154.0 sse 2 2 92 95 0.0 1012 22
09:00 12 162.0 sse 1 1 92 97 0.0 1012 22
12:00 16 176.0 s 1 2 73 93 0.0 1011 326
15:00 16 165.0 sse 1 2 70 96 0.0 1010 340
18:00 13 71.0 ene 0 1 86 100 0.0 1009 23
21:00 12 286.0 wnw 0 1 89 100 0.0 1009 22
 
Mon20 00:00 11 301.0 wnw 2 3 88 53 0.0 1009 22
03:00 10 59.0 ene 1 1 85 54 0.0 1009 22
06:00 10 104.0 ese 2 2 86 87 0.0 1007 22
09:00 12 157.0 sse 5 11 92 94 0.0 1006 322
12:00 16 193.0 ssw 9 13 68 96 0.0 1004 1042
15:00 15 224.0 sw 9 13 73 98 0.0 1004 1044
18:00 7 314.0 nw 8 12 82 100 0.0 1007 547
21:00 6 330.0 nnw 9 13 76 100 0.1 1008 743
 
Tue21 00:00 6 334.0 nnw 9 13 74 100 0.1 1010 698
03:00 6 340.0 nnw 8 12 70 100 0.3 1011 667
06:00 5 342.0 nnw 8 12 63 100 0.0 1011 678
09:00 5 346.0 nnw 8 12 62 100 0.0 1012 771
12:00 6 334.0 nnw 8 11 58 100 0.0 1013 905
15:00 6 321.0 nw 8 11 51 100 0.0 1013 927
18:00 5 313.0 nw 5 10 56 100 0.0 1014 503
21:00 4 302.0 wnw 3 6 60 88 0.0 1015 124
 
Wed22 00:00 3 298.0 wnw 1 1 63 4 0.0 1016 25
03:00 4 93.0 e 3 3 61 34 0.1 1015 66
06:00 5 115.0 ese 6 10 65 98 0.4 1014 421
09:00 6 111.0 ese 8 13 80 99 6.1 1012 761
12:00 5 44.0 ne 11 14 84 100 12.9 1011 730
15:00 4 24.0 nne 15 18 79 100 13.1 1012 1007
18:00 4 13.0 nne 11 15 79 100 1.0 1014 1119
21:00 4 358.0 n 11 15 70 100 2.3 1017 1160
 

0.015 s